EDT,Max TemperatureF,Mean TemperatureF,Min TemperatureF,Max Dew PointF,MeanDew PointF,Min DewpointF,Max Humidity, Mean Humidity, Min Humidity, Max Sea Level PressureIn, Mean Sea Level PressureIn, Min Sea Level PressureIn, Max VisibilityMiles, Mean VisibilityMiles, Min VisibilityMiles, Max Wind SpeedMPH, Mean Wind SpeedMPH, Max Gust SpeedMPH,PrecipitationIn, CloudCover, Events, WindDirDegrees
2013-10-1,82,70,57,62,57,54,97,72,39,30.15,30.10,30.06,10,9,1,9,2,,0.00,0,,10
2013-10-2,86,72,57,64,60,57,97,76,38,30.16,30.11,30.07,10,8,0,8,1,,0.00,1,Fog,25
2013-10-3,86,72,59,70,63,58,100,88,56,30.15,30.10,30.07,10,4,0,12,2,,0.00,2,Fog,34
2013-10-4,89,76,64,70,66,62,97,86,43,30.15,30.10,30.07,10,5,0,8,1,,0.00,1,Fog,11
2013-10-5,87,76,64,70,66,62,97,87,46,30.13,30.09,30.04,10,4,0,10,1,,0.00,2,Fog,73
2013-10-6,89,76,66,73,69,66,97,89,55,30.06,30.01,29.92,10,4,0,12,1,,0.00,4,Fog,99
2013-10-7,88,79,71,75,72,69,94,85,61,29.90,29.86,29.80,10,9,1,13,4,,0.00,6,Fog-Rain-Thunderstorm,140
2013-10-8,73,67,61,71,65,56,93,87,76,30.08,29.95,29.84,10,10,7,18,10,28,0.00,8,Rain-Thunderstorm,21
2013-10-9,79,68,57,61,57,54,87,73,52,30.12,30.08,30.04,10,10,10,15,10,24,0.00,3,,5
2013-10-10,80,69,59,59,55,53,87,68,40,30.09,30.03,29.97,10,10,10,14,7,,0.00,0,,340
2013-10-11,82,70,57,64,58,54,96,72,39,30.04,29.98,29.93,10,10,10,10,4,,0.00,2,,277
2013-10-12,84,72,59,68,61,56,90,73,40,30.06,30.00,29.95,10,10,10,7,3,,0.00,2,,185
2013-10-13,80,74,69,69,65,62,91,77,54,30.14,30.10,30.04,10,10,9,12,6,17,0.00,7,,26
2013-10-14,73,70,68,65,64,63,87,81,71,30.14,30.10,30.06,10,10,6,17,11,22,0.00,7,,28
2013-10-15,77,70,62,63,59,55,90,77,47,30.10,30.06,30.01,10,10,10,16,10,23,0.00,5,,34
2013-10-16,81,70,60,66,62,58,93,78,52,30.04,30.01,29.96,10,10,7,6,3,,0.00,3,,39
2013-10-17,86,73,62,70,64,61,97,85,49,30.01,29.96,29.90,10,6,0,10,1,,0.00,2,Fog,208
2013-10-18,86,76,69,70,69,67,93,81,56,29.99,29.95,29.91,10,10,7,10,4,,0.00,5,Fog,276
2013-10-19,84,76,68,71,68,59,93,81,62,29.97,29.92,29.88,10,8,5,10,3,17,0.00,6,Rain,292
2013-10-20,75,69,62,62,58,52,87,71,53,30.06,30.00,29.94,10,10,10,10,7,,0.00,5,,43
2013-10-21,73,68,62,60,57,55,84,74,59,30.11,30.06,30.01,10,10,10,9,6,,0.00,6,,42
2013-10-22,69,66,63,62,60,56,93,83,63,30.03,29.95,29.87,10,9,4,5,2,,0.00,6,Rain,34
2013-10-23,73,65,57,62,52,38,97,69,29,30.05,29.86,29.80,10,9,7,15,7,28,0.00,3,,297
2013-10-24,68,56,45,47,40,34,86,58,34,30.22,30.15,30.06,10,10,10,12,6,,0.00,0,,322
2013-10-25,64,55,46,50,42,33,89,64,33,30.35,30.26,30.17,10,10,10,15,6,20,0.00,2,,2
2013-10-26,66,54,41,45,38,35,83,61,36,30.33,30.26,30.17,10,10,10,9,6,17,0.00,0,,7
2013-10-27,75,58,42,55,45,39,89,66,36,30.17,30.14,30.09,10,10,10,8,3,,0.00,0,,264
2013-10-28,77,64,54,57,54,51,93,73,48,30.27,30.22,30.15,10,10,7,7,3,,0.00,3,,342
2013-10-29,80,66,53,58,53,50,100,84,38,30.34,30.27,30.25,10,5,0,6,1,,0.00,1,Fog,32
2013-10-30,79,66,53,61,55,52,100,84,42,30.33,30.26,30.20,10,5,0,6,2,,0.00,2,Fog,2
2013-10-31,82,68,55,69,58,53,97,87,56,30.21,30.15,30.00,10,5,0,12,1,17,0.00,4,Fog,177